NEODyS-2

Near Earth Objects - Dynamic Site
NEODyS ∴ Observatories ∴ Site 691 ∴ Obs & residuals
Contact »
691  ▹ 
OBSERVATIONS AND RESIDUALS

691-Steward Observatory, Kitt Peak-Spacewatch

Detections | Residuals | Detections & Residuals

[1-200] [201-400] [401-600] [601-800] [801-1000] [1001-1200] [1201-1400] [1401-1600] [1601-1800] [1801-2000] [2001-2200] [2201-2400] [2401-2600] [2601-2800] [2801-3000] [3001-3200] [3201-3400] [3401-3600] [3601-3800] [3801-4000] [4001-4200] [4201-4400] [4401-4600] [4601-4800] [4801-5000] [5001-5200] [5201-5400] [5401-5600] [5601-5800] [5801-6000] [6001-6200] [6201-6400] [6401-6600] [6601-6800] [6801-7000] [7001-7200] [7201-7400] [7401-7600] [7601-7800] [7801-8000] [8001-8200] [8201-8400] [8401-8600] [8601-8800] [8801-9000] [9001-9200] [9201-9400] [9401-9600] [9601-9800] [9801-10000] [10001-10200] [10201-10400] [10401-10600] [10601-10800] [10801-11000] [11001-11200] [11201-11400] [11401-11600] [11601-11800] [11801-12000] [12001-12200] [12201-12400] [12401-12600] [12601-12800] [12801-13000] [13001-13200] [13201-13400] [13401-13600] [13601-13800] [13801-14000] [14001-14200] [14201-14400] [14401-14600] [14601-14800] [14801-15000] [15001-15200] [15201-15400] [15401-15600] [15601-15800] [15801-16000] [16001-16200] [16201-16400] [16401-16600] [16601-16800] [16801-17000] [17001-17200] [17201-17400] [17401-17600] [17601-17800] [17801-18000] [18001-18200] [18201-18400] [18401-18600] [18601-18800] [18801-19000] [19001-19200] [19201-19400] [19401-19600] [19601-19800] [19801-20000] [20001-20200] [20201-20400] [20401-20600] [20601-20800] [20801-21000] [21001-21200] [21201-21400] [21401-21600] [21601-21800] [21801-22000] [22001-22200] [22201-22400] [22401-22600] [22601-22800] [22801-23000] [23001-23200] [23201-23400] [23401-23600] [23601-23800] [23801-24000] [24001-24200] [24201-24400] [24401-24600] [24601-24800] [24801-25000] [25001-25200] [25201-25400] [25401-25600] [25601-25800] [25801-26000] [26001-26200] [26201-26400] [26401-26600] [26601-26800] [26801-27000] [27001-27200] [27201-27400] [27401-27600] [27601-27800] [27801-28000] [28001-28200] [28201-28400] [28401-28600] [28601-28800] [28801-29000] [29001-29200] [29201-29400] [29401-29600] [29601-29800] [29801-30000] [30001-30200] [30201-30400] [30401-30600] [30601-30800] [30801-31000] [31001-31200] [31201-31400] [31401-31600] [31601-31800] [31801-32000] [32001-32200] [32201-32400] [32401-32600] [32601-32800] [32801-33000] [33001-33200] [33201-33400] [33401-33600] [33601-33800] [33801-34000] [34001-34200] [34201-34400] [34401-34600] [34601-34800] [34801-35000] [35001-35200] [35201-35400] [35401-35600] [35601-35800] [35801-36000] [36001-36200] [36201-36400] [36401-36600] [36601-36800] [36801-37000] [37001-37200] [37201-37400] [37401-37600] [37601-37800] [37801-38000] [38001-38200] [38201-38400] [38401-38600] [38601-38800] [38801-39000] [39001-39200] [39201-39400] [39401-39600] [39601-39800] [39801-40000] [40001-40200] [40201-40400] [40401-40600] [40601-40800] [40801-41000] [41001-41200] [41201-41400] [41401-41600] [41601-41800] [41801-42000] [42001-42200] [42201-42400] [42401-42600] [42601-42800] [42801-43000] [43001-43200] [43201-43400] [43401-43600] [43601-43800] [43801-44000] [44001-44200] [44201-44400] [44401-44600] [44601-44800] [44801-45000] [45001-45200] [45201-45400] [45401-45600] [45601-45800] [45801-46000] [46001-46200] [46201-46400] [46401-46600] [46601-46800] [46801-47000] [47001-47200] [47201-47400] [47401-47600] [47601-47800] [47801-48000] [48001-48200] [48201-48400] [48401-48600] [48601-48800] [48801-49000] [49001-49200] [49201-49400] [49401-49600] [49601-49800] [49801-50000] [50001-50200] [50201-50388]

Designation T Tech N Date Right Ascension Declination Apparent Magnitude Star Catalog Site code χ Used A Used M
yr-mo-day precision hr:min:sec precision rms F bias residual deg min sec precision rms F bias residual mag/col rms residual
2001UD18 O C t 2001-10-27.46075 1.000E-05 03:16:52.310 1.500E-01 0.849 F 0.084 0.490 +09° 28' 34.80" 1.000E-01 0.849 F 0.330 0.311 d 691 0.91 Yes No
2001UD18 O C t 2001-10-27.46566 1.000E-05 03:17:07.350 1.500E-01 0.849 F 0.084 -5.955 +09° 28' 33.40" 1.000E-01 0.849 F 0.330 0.521 d 691 5.73 No No
2001UQ163 O C H 2001-10-27.47318 1.000E-05 03:30:07.290 1.500E-01 0.735 F 0.018 -0.016 +14° 04' 19.70" 1.000E-01 0.735 F 0.201 0.205 21.6 V 0.70 0.09 d 691 0.28 Yes Yes
2001UQ163 O C H 2001-10-27.47711 1.000E-05 03:30:06.830 1.500E-01 0.735 F 0.018 -0.457 +14° 04' 21.40" 1.000E-01 0.735 F 0.201 0.978 21.5 V 0.70 -0.01 d 691 1.48 Yes Yes
2001UQ163 O C H 2001-10-27.48176 1.000E-05 03:30:06.360 1.500E-01 0.735 F 0.018 0.096 +14° 04' 22.80" 1.000E-01 0.735 F 0.201 1.285 21.0 V 0.70 -0.51 d 691 1.77 Yes Yes
2001UD5 O C 2001-11-11.27407 1.000E-05 02:12:28.750 1.500E-01 0.600 F -0.015 0.114 +17° 36' 48.00" 1.000E-01 0.600 F 0.212 0.375 22.7 V 0.70 1.13 d 691 0.79 Yes Yes
2001UD5 O C 2001-11-11.27886 1.000E-05 02:12:28.450 1.500E-01 0.600 F -0.015 -0.200 +17° 36' 45.90" 1.000E-01 0.600 F 0.212 -0.327 22.4 V 0.70 0.83 d 691 0.78 Yes Yes
2001UD5 O C 2001-11-11.28361 1.000E-05 02:12:28.190 1.500E-01 0.600 F -0.015 0.021 +17° 36' 44.70" 1.000E-01 0.600 F 0.212 -0.136 22.2 V 0.70 0.63 d 691 0.28 Yes Yes
2001VF75 O C 2001-11-11.31462 1.000E-05 03:11:53.420 1.500E-01 0.735 F -0.020 -0.795 +20° 03' 57.20" 1.000E-01 0.735 F 0.353 0.388 19.6 V 0.70 0.31 d 691 1.34 Yes Yes
2001VF75 O C 2001-11-11.33760 1.000E-05 03:11:49.200 1.500E-01 0.735 F -0.020 -0.055 +20° 05' 35.90" 1.000E-01 0.735 F 0.353 -1.014 19.5 V 0.70 0.22 d 691 1.51 Yes Yes
2001VF75 O C 2001-11-11.36175 1.000E-05 03:11:44.740 1.500E-01 0.735 F -0.020 0.332 +20° 07' 20.80" 1.000E-01 0.735 F 0.353 -1.219 19.4 V 0.70 0.12 d 691 1.88 Yes Yes
2001VF75 O C t 2001-11-11.45985 1.000E-05 03:11:26.640 1.500E-01 0.735 F -0.020 -0.264 +20° 14' 28.60" 1.000E-01 0.735 F 0.353 0.327 19.1 V 0.70 -0.18 d 691 0.62 Yes Yes
2001VF75 O C t 2001-11-11.46485 1.000E-05 03:11:25.780 1.500E-01 0.735 F -0.020 0.415 +20° 14' 50.60" 1.000E-01 0.735 F 0.353 0.615 19.4 V 0.70 0.13 d 691 1.07 Yes Yes
2001VF75 O C t 2001-11-11.47077 1.000E-05 03:11:24.640 1.500E-01 0.735 F -0.020 -0.521 +20° 15' 15.70" 1.000E-01 0.735 F 0.353 0.008 19.9 V 0.70 0.63 d 691 0.75 Yes Yes
2001VG5 O C 2001-11-11.49933 1.000E-05 04:11:56.940 1.500E-01 0.600 F 0.094 -0.474 +27° 30' 36.80" 1.000E-01 0.600 F 0.040 0.219 19.0 V 0.70 0.39 d 691 0.87 Yes Yes
2001VG5 O C 2001-11-11.51586 1.000E-05 04:11:55.650 1.500E-01 0.600 F 0.094 -0.399 +27° 30' 26.40" 1.000E-01 0.600 F 0.040 0.085 18.7 V 0.70 0.10 d 691 0.68 Yes Yes
2001VG5 O C 2001-11-11.53221 1.000E-05 04:11:54.380 1.500E-01 0.600 F 0.094 -0.314 +27° 30' 16.30" 1.000E-01 0.600 F 0.040 0.166 18.7 V 0.70 0.10 d 691 0.59 Yes Yes
2001UP27 O C 2001-11-15.21742 1.000E-05 02:05:57.930 1.500E-01 0.600 F -0.211 0.108 +13° 26' 06.90" 1.000E-01 0.600 F 0.407 0.052 19.8 V 0.70 0.34 d 691 0.21 Yes Yes
2001UP27 O C 2001-11-15.23916 1.000E-05 02:05:53.440 1.500E-01 0.600 F -0.211 0.116 +13° 27' 25.60" 1.000E-01 0.600 F 0.407 -0.103 20.0 V 0.70 0.54 d 691 0.27 Yes Yes
2001UP27 O C 2001-11-15.26070 1.000E-05 02:05:48.980 1.500E-01 0.600 F -0.211 -0.050 +13° 28' 43.60" 1.000E-01 0.600 F 0.407 -0.104 20.0 V 0.70 0.54 d 691 0.20 Yes Yes
2001XN254 O C 2001-11-16.48254 1.000E-05 07:04:21.270 1.500E-01 0.600 F 0.225 -0.302 +23° 06' 13.00" 1.000E-01 0.600 F 0.201 -0.029 20.1 V 0.70 0.18 d 691 0.51 Yes Yes
2001XN254 O C 2001-11-16.50532 1.000E-05 07:04:22.150 1.500E-01 0.600 F 0.225 -0.062 +23° 06' 09.90" 1.000E-01 0.600 F 0.201 -0.137 20.4 V 0.70 0.48 d 691 0.25 Yes Yes
2001XN254 O C 2001-11-16.52816 1.000E-05 07:04:23.010 1.500E-01 0.600 F 0.225 -0.169 +23° 06' 07.00" 1.000E-01 0.600 F 0.201 0.020 20.3 V 0.70 0.38 d 691 0.28 Yes Yes
2001UQ163 O C H 2001-11-17.19036 1.000E-05 02:56:14.120 1.500E-01 0.600 F 0.052 0.408 +15° 12' 10.40" 1.000E-01 0.600 F 0.575 0.748 21.2 V 0.70 -0.59 d 691 1.46 Yes Yes
2001UQ163 O C H 2001-11-17.19433 1.000E-05 02:56:13.760 1.500E-01 0.600 F 0.052 0.046 +15° 12' 10.60" 1.000E-01 0.600 F 0.575 0.263 21.2 V 0.70 -0.59 d 691 0.45 Yes Yes
2001UQ163 O C H 2001-11-17.20287 1.000E-05 02:56:13.050 1.500E-01 0.600 F 0.052 0.208 +15° 12' 11.70" 1.000E-01 0.600 F 0.575 -0.107 21.0 V 0.70 -0.79 d 691 0.40 Yes Yes
2001VF75 O C t 2001-11-17.20928 1.000E-05 02:50:25.500 1.500E-01 0.600 F 0.006 -0.268 +28° 28' 24.70" 1.000E-01 0.600 F 0.195 0.249 19.0 V 0.70 -0.25 d 691 0.64 Yes Yes
2001VF75 O C t 2001-11-17.21676 1.000E-05 02:50:23.350 1.500E-01 0.600 F 0.006 -0.033 +28° 29' 09.00" 1.000E-01 0.600 F 0.195 -0.150 18.8 V 0.70 -0.45 d 691 0.27 Yes Yes
2001VF75 O C t 2001-11-17.22108 1.000E-05 02:50:22.100 1.500E-01 0.600 F 0.006 0.014 +28° 29' 34.90" 1.000E-01 0.600 F 0.195 -0.057 19.1 V 0.70 -0.15 d 691 0.10 Yes Yes
2001VF75 O C t 2001-11-17.22555 1.000E-05 02:50:20.860 1.500E-01 0.600 F 0.006 0.782 +28° 30' 01.30" 1.000E-01 0.600 F 0.195 -0.351 19.6 V 0.70 0.35 d 691 1.50 Yes Yes
2001US16 O C H 2001-11-18.12028 1.000E-05 01:44:47.360 1.500E-01 0.600 F -0.063 0.509 +07° 26' 37.80" 1.000E-01 0.600 F 0.330 1.914 20.9 V 0.70 -0.62 d 691 3.30 No Yes
2001US16 O C H 2001-11-18.12408 1.000E-05 01:44:46.960 1.500E-01 0.600 F -0.063 -1.581 +07° 26' 35.90" 1.000E-01 0.600 F 0.330 1.338 21.2 V 0.70 -0.32 d 691 3.45 No Yes
2001US16 O C H 2001-11-18.12785 1.000E-05 01:44:46.740 1.500E-01 0.600 F -0.063 -1.020 +07° 26' 33.80" 1.000E-01 0.600 F 0.330 0.552 21.8 V 0.70 0.27 d 691 1.93 Yes Yes
2001XG1 O C 2001-11-20.42107 1.000E-05 03:44:50.880 1.500E-01 0.600 F 0.012 0.517 +20° 17' 47.20" 1.000E-01 0.600 F 0.323 -0.280 19.9 V 0.70 0.16 d 691 0.99 Yes Yes
2001XG1 O C 2001-11-20.42521 1.000E-05 03:44:50.550 1.500E-01 0.600 F 0.012 0.536 +20° 17' 50.70" 1.000E-01 0.600 F 0.323 -0.409 20.0 V 0.70 0.26 d 691 1.14 Yes Yes
2001XG1 O C 2001-11-20.42957 1.000E-05 03:44:50.200 1.500E-01 0.600 F 0.012 0.502 +20° 17' 54.50" 1.000E-01 0.600 F 0.323 -0.425 20.0 V 0.70 0.26 d 691 1.11 Yes Yes
2001VG75 O C 2001-11-21.10315 1.000E-05 23:23:30.880 1.500E-01 0.600 F 0.019 0.560 +20° 00' 21.30" 1.000E-01 0.600 F 0.455 -0.503 21.1 V 0.70 1.04 d 691 1.26 Yes Yes
2001VG75 O C 2001-11-21.10771 1.000E-05 23:23:31.050 1.500E-01 0.600 F 0.019 0.374 +20° 00' 14.60" 1.000E-01 0.600 F 0.455 -0.413 20.5 V 0.70 0.44 d 691 0.93 Yes Yes
2001VG75 O C 2001-11-21.11242 1.000E-05 23:23:31.290 1.500E-01 0.600 F 0.019 1.090 +20° 00' 07.80" 1.000E-01 0.600 F 0.455 -0.198 20.5 V 0.70 0.44 d 691 1.85 Yes Yes
2001VB2 O C t 2001-11-21.14410 1.000E-05 23:11:16.230 1.500E-01 0.600 F -0.077 0.335 -08° 17' 10.10" 1.000E-01 0.600 F 0.298 0.536 18.6 V 0.70 0.23 d 691 1.07 Yes Yes
2001VB2 O C t 2001-11-21.14848 1.000E-05 23:11:17.510 1.500E-01 0.600 F -0.077 0.468 -08° 16' 52.00" 1.000E-01 0.600 F 0.298 0.660 18.7 V 0.70 0.33 d 691 1.37 Yes Yes
2001VB2 O C t 2001-11-21.15252 1.000E-05 23:11:18.640 1.500E-01 0.600 F -0.077 -0.165 -08° 16' 35.30" 1.000E-01 0.600 F 0.298 0.778 18.8 V 0.70 0.43 d 691 1.34 Yes Yes
2001SG10 O C H 2001-11-21.17548 1.000E-05 00:56:40.840 1.500E-01 0.600 F -0.028 0.962 -00° 50' 08.90" 1.000E-01 0.600 F 0.337 0.807 20.9 V 0.70 -0.32 d 691 2.09 Yes Yes
2001TP103 O C 2001-11-21.17962 1.000E-05 01:01:18.410 1.500E-01 0.600 F -0.116 0.052 +05° 57' 47.20" 1.000E-01 0.600 F 0.225 -0.234 20.5 V 0.70 0.41 d 691 0.40 Yes Yes
2001SG10 O C H 2001-11-21.18368 1.000E-05 00:56:41.100 1.500E-01 0.600 F -0.028 -0.164 -00° 50' 05.90" 1.000E-01 0.600 F 0.337 0.596 21.0 V 0.70 -0.22 d 691 1.03 Yes Yes
2001TP103 O C 2001-11-21.18772 1.000E-05 01:01:18.270 1.500E-01 0.600 F -0.116 0.200 +05° 57' 41.30" 1.000E-01 0.600 F 0.225 0.033 20.6 V 0.70 0.51 d 691 0.34 Yes Yes
2001SG10 O C H 2001-11-21.19217 1.000E-05 00:56:41.460 1.500E-01 0.600 F -0.028 0.031 -00° 50' 02.40" 1.000E-01 0.600 F 0.337 0.771 21.4 V 0.70 0.18 d 691 1.29 Yes Yes
2001TP103 O C 2001-11-21.19726 1.000E-05 01:01:18.090 1.500E-01 0.600 F -0.116 0.142 +05° 57' 33.90" 1.000E-01 0.600 F 0.225 -0.099 20.3 V 0.70 0.21 d 691 0.29 Yes Yes
2001VS78 O C 2001-11-24.52614 1.000E-05 10:13:32.560 1.500E-01 0.600 F 0.379 -0.030 +14° 47' 25.60" 1.000E-01 0.600 F 0.219 -0.189 18.3 V 0.70 -0.22 d 691 0.32 Yes Yes
2001VS78 O C 2001-11-24.53091 1.000E-05 10:13:33.350 1.500E-01 0.600 F 0.379 -0.175 +14° 47' 26.80" 1.000E-01 0.600 F 0.219 -0.210 18.3 V 0.70 -0.22 d 691 0.46 Yes Yes
2001VS78 O C 2001-11-24.53515 1.000E-05 10:13:34.060 1.500E-01 0.600 F 0.379 -0.190 +14° 47' 27.80" 1.000E-01 0.600 F 0.219 -0.294 18.3 V 0.70 -0.22 d 691 0.58 Yes Yes
2001WR1 O C H 2001-11-25.08013 1.000E-05 20:50:42.900 1.500E-01 0.600 F 0.251 0.197 +20° 33' 17.10" 1.000E-01 0.600 F 0.304 -0.581 19.8 V 0.70 1.19 d 691 1.03 Yes Yes
2001WR1 O C H 2001-11-25.08525 1.000E-05 20:50:43.300 1.500E-01 0.600 F 0.251 0.730 +20° 33' 32.40" 1.000E-01 0.600 F 0.304 -0.171 20.2 V 0.70 1.59 d 691 1.25 Yes Yes
2001WR1 O C H 2001-11-25.09033 1.000E-05 20:50:43.590 1.500E-01 0.600 F 0.251 -0.252 +20° 33' 47.00" 1.000E-01 0.600 F 0.304 -0.338 20.4 V 0.70 1.79 d 691 0.71 Yes Yes
2001WH1 O C 2001-11-25.35384 1.000E-05 04:45:34.580 1.500E-01 0.600 F -0.037 0.960 +17° 35' 53.90" 1.000E-01 0.600 F 0.029 -0.939 17.9 V 0.70 -0.37 d 691 2.35 Yes Yes
2001WH1 O C 2001-11-25.35816 1.000E-05 04:45:33.660 1.500E-01 0.600 F -0.037 0.217 +17° 36' 01.70" 1.000E-01 0.600 F 0.029 -0.605 19.7 V 0.70 1.43 d 691 1.12 Yes Yes
2001WH1 O C 2001-11-25.36406 1.000E-05 04:45:32.420 1.500E-01 0.600 F -0.037 -0.558 +17° 36' 12.80" 1.000E-01 0.600 F 0.029 0.302 18.3 V 0.70 0.03 d 691 1.11 Yes Yes
2001WH49 O C 2001-11-25.37885 1.000E-05 04:54:25.330 1.500E-01 0.600 F 0.010 0.620 +16° 31' 52.80" 1.000E-01 0.600 F 0.113 -0.349 21.3 V 0.70 -0.13 d 691 1.52 Yes Yes
2001WH49 O C 2001-11-25.38669 1.000E-05 04:54:25.680 1.500E-01 0.600 F 0.010 -0.562 +16° 31' 30.80" 1.000E-01 0.600 F 0.113 0.340 21.8 V 0.70 0.37 d 691 1.34 Yes Yes
2001WH49 O C 2001-11-25.39092 1.000E-05 04:54:25.950 1.500E-01 0.600 F 0.010 -0.058 +16° 31' 18.20" 1.000E-01 0.600 F 0.113 0.000 21.1 V 0.70 -0.33 d 691 0.12 Yes Yes
Miwablock O C 2001-12-06.46631 1.000E-05 08:05:32.710 1.500E-01 0.600 F 0.128 -0.283 +21° 43' 03.50" 1.000E-01 0.600 F 0.383 -0.035 16.8 V 0.70 0.09 d 691 0.48 Yes Yes
Miwablock O C 2001-12-06.50047 1.000E-05 08:05:31.340 1.500E-01 0.600 F 0.128 -0.281 +21° 43' 21.10" 1.000E-01 0.600 F 0.383 -0.068 16.6 V 0.70 -0.11 d 691 0.48 Yes Yes
Miwablock O C 2001-12-06.53219 1.000E-05 08:05:30.070 1.500E-01 0.600 F 0.128 -0.344 +21° 43' 37.40" 1.000E-01 0.600 F 0.383 -0.022 16.5 V 0.70 -0.21 d 691 0.58 Yes Yes
2001WN5 O C 2001-12-17.07132 1.000E-05 00:28:24.510 1.500E-01 0.600 F -0.064 -1.032 +05° 46' 56.00" 1.000E-01 0.600 F 0.329 -0.642 20.4 V 0.70 0.38 d 691 2.03 Yes Yes
2001WN5 O C 2001-12-17.07552 1.000E-05 00:28:25.340 1.500E-01 0.600 F -0.064 -0.953 +05° 47' 00.80" 1.000E-01 0.600 F 0.329 -0.358 20.2 V 0.70 0.18 d 691 1.70 Yes Yes
2001WN5 O C 2001-12-17.08129 1.000E-05 00:28:26.570 1.500E-01 0.600 F -0.064 0.496 +05° 47' 07.20" 1.000E-01 0.600 F 0.329 -0.159 20.5 V 0.70 0.48 d 691 0.87 Yes Yes
1999YR14 O C H 2001-12-19.09544 1.000E-05 23:20:32.670 1.500E-01 0.600 F -0.164 1.077 +02° 13' 05.90" 1.000E-01 0.600 F 0.547 1.321 22.2 V 0.70 1.59 d 691 2.87 Yes Yes
1999YR14 O C H 2001-12-19.09959 1.000E-05 23:20:33.940 1.500E-01 0.600 F -0.164 1.807 +02° 13' 15.00" 1.000E-01 0.600 F 0.547 1.222 21.0 V 0.70 0.39 d 691 3.60 No Yes
1999YR14 O C H 2001-12-19.10422 1.000E-05 23:20:35.220 1.500E-01 0.600 F -0.164 0.566 +02° 13' 26.60" 1.000E-01 0.600 F 0.547 2.560 21.2 V 0.70 0.59 d 691 4.35 No Yes
2001XH16 O C H 2001-12-19.31456 1.000E-05 06:22:56.510 1.500E-01 0.600 F 0.043 -0.213 +26° 34' 31.40" 1.000E-01 0.600 F 0.206 -0.875 21.8 V 0.70 0.46 d 691 1.62 Yes Yes
2001XH16 O C H 2001-12-19.31977 1.000E-05 06:22:55.640 1.500E-01 0.600 F 0.043 -0.386 +26° 34' 35.70" 1.000E-01 0.600 F 0.206 0.464 21.4 V 0.70 0.06 d 691 1.10 Yes Yes
2000NF5 O C 2001-12-20.37587 1.000E-05 07:30:40.000 1.500E-01 0.600 F 0.171 -0.437 +21° 43' 36.50" 1.000E-01 0.600 F 0.231 0.190 21.1 V 0.70 0.18 d 691 0.79 Yes Yes
2000NF5 O C 2001-12-20.39838 1.000E-05 07:30:38.640 1.500E-01 0.600 F 0.171 -0.471 +21° 43' 38.90" 1.000E-01 0.600 F 0.231 0.100 21.0 V 0.70 0.08 d 691 0.80 Yes Yes
2000NF5 O C 2001-12-20.42099 1.000E-05 07:30:37.270 1.500E-01 0.600 F 0.171 -0.562 +21° 43' 41.50" 1.000E-01 0.600 F 0.231 0.223 20.9 V 0.70 -0.02 d 691 1.01 Yes Yes
2001YT3 O C 2001-12-20.50867 1.000E-05 08:26:24.260 1.500E-01 0.600 F 0.321 -0.025 +24° 38' 20.10" 1.000E-01 0.600 F 0.394 -0.339 20.9 V 0.70 0.49 d 691 0.57 Yes Yes
2001YT3 O C 2001-12-20.52418 1.000E-05 08:26:25.790 1.500E-01 0.600 F 0.321 0.166 +24° 38' 10.60" 1.000E-01 0.600 F 0.394 -0.463 20.7 V 0.70 0.29 d 691 0.83 Yes Yes
2001YT3 O C 2001-12-20.53971 1.000E-05 08:26:27.290 1.500E-01 0.600 F 0.321 -0.195 +24° 38' 01.40" 1.000E-01 0.600 F 0.394 -0.210 20.9 V 0.70 0.49 d 691 0.48 Yes Yes
2001YT3 O C 2001-12-21.35578 1.000E-05 08:27:54.040 1.500E-01 0.600 F 0.321 -0.187 +24° 30' 11.40" 1.000E-01 0.600 F 0.394 -0.282 21.3 V 0.70 0.93 d 691 0.57 Yes Yes
2001YT3 O C 2001-12-21.36039 1.000E-05 08:27:54.500 1.500E-01 0.600 F 0.321 0.124 +24° 30' 08.80" 1.000E-01 0.600 F 0.394 -0.276 21.3 V 0.70 0.93 d 691 0.51 Yes Yes
2001YT3 O C 2001-12-21.36573 1.000E-05 08:27:54.980 1.500E-01 0.600 F 0.321 -0.229 +24° 30' 05.60" 1.000E-01 0.600 F 0.394 -0.448 20.9 V 0.70 0.53 d 691 0.85 Yes Yes
2001WG2 O C 2001-12-22.06688 1.000E-05 04:56:47.350 1.500E-01 0.600 F -0.001 0.070 +28° 26' 33.80" 1.000E-01 0.600 F 0.054 -0.044 17.3 V 0.70 0.47 d 691 0.14 Yes Yes
2001WG2 O C 2001-12-22.09120 1.000E-05 04:56:40.870 1.500E-01 0.600 F -0.001 0.095 +28° 27' 15.20" 1.000E-01 0.600 F 0.054 0.130 17.3 V 0.70 0.46 d 691 0.27 Yes Yes
2001WG2 O C 2001-12-22.11632 1.000E-05 04:56:34.140 1.500E-01 0.600 F -0.001 -0.072 +28° 27' 57.80" 1.000E-01 0.600 F 0.054 0.213 17.3 V 0.70 0.46 d 691 0.38 Yes Yes
2001YT3 O C H 2001-12-22.44396 1.000E-05 08:29:44.820 1.500E-01 0.600 F 0.321 -1.264 +24° 19' 30.90" 1.000E-01 0.600 F 0.394 0.687 21.3 V 0.70 0.97 d 691 2.44 Yes Yes
2001YT3 O C H 2001-12-22.44901 1.000E-05 08:29:45.280 1.500E-01 0.600 F 0.321 -1.354 +24° 19' 27.80" 1.000E-01 0.600 F 0.394 0.659 21.2 V 0.70 0.87 d 691 2.55 Yes Yes
2001YT3 O C H 2001-12-22.46265 1.000E-05 08:29:46.640 1.500E-01 0.600 F 0.321 -0.015 +24° 19' 20.30" 1.000E-01 0.600 F 0.394 1.497 21.9 V 0.70 1.57 d 691 2.52 Yes Yes
2001YN2 O C H 2001-12-23.21025 1.000E-05 05:44:50.340 1.500E-01 0.600 F 0.128 -1.035 +26° 16' 09.00" 1.000E-01 0.600 F 0.139 0.734 20.8 V 0.70 0.52 d 691 2.21 Yes Yes
2001YN2 O C H 2001-12-23.21524 1.000E-05 05:44:51.290 1.500E-01 0.600 F 0.128 1.106 +26° 16' 08.90" 1.000E-01 0.600 F 0.139 -0.177 21.3 V 0.70 1.02 d 691 1.96 Yes Yes
2001YN2 O C H 2001-12-23.22044 1.000E-05 05:44:52.070 1.500E-01 0.600 F 0.128 0.568 +26° 16' 10.00" 1.000E-01 0.600 F 0.139 0.114 20.6 V 0.70 0.32 d 691 1.01 Yes Yes
2001YU3 O C H 2001-12-23.37565 1.000E-05 04:16:40.840 1.500E-01 0.600 F 0.040 0.104 +21° 36' 44.30" 1.000E-01 0.600 F 0.410 0.089 20.2 V 0.70 0.15 d 691 0.23 Yes Yes
2001YU3 O C H 2001-12-23.38054 1.000E-05 04:16:40.240 1.500E-01 0.600 F 0.040 0.343 +21° 36' 48.40" 1.000E-01 0.600 F 0.410 1.125 20.0 V 0.70 -0.05 d 691 1.97 Yes Yes
2001YU3 O C H 2001-12-23.38540 1.000E-05 04:16:39.580 1.500E-01 0.600 F 0.040 -0.319 +21° 36' 51.40" 1.000E-01 0.600 F 0.410 1.084 20.1 V 0.70 0.05 d 691 1.89 Yes Yes
2001YU3 O C 2001-12-24.18977 1.000E-05 04:15:03.070 1.500E-01 0.600 F 0.040 0.165 +21° 45' 41.90" 1.000E-01 0.600 F 0.410 -0.275 20.9 V 0.70 0.84 d 691 0.54 Yes Yes
2001YU3 O C 2001-12-24.19461 1.000E-05 04:15:02.450 1.500E-01 0.600 F 0.040 0.151 +21° 45' 45.10" 1.000E-01 0.600 F 0.410 -0.319 20.9 V 0.70 0.84 d 691 0.59 Yes Yes
2001YU3 O C 2001-12-24.19960 1.000E-05 04:15:01.790 1.500E-01 0.600 F 0.040 -0.151 +21° 45' 48.40" 1.000E-01 0.600 F 0.410 -0.358 20.9 V 0.70 0.84 d 691 0.66 Yes Yes
2001YN2 O C H 2001-12-24.21107 1.000E-05 05:47:42.610 1.500E-01 0.600 F 0.063 0.407 +26° 16' 41.90" 1.000E-01 0.600 F 0.240 0.750 21.9 V 0.70 1.33 d 691 1.48 Yes Yes
2001YN2 O C H 2001-12-24.21787 1.000E-05 05:47:43.350 1.500E-01 0.600 F 0.063 -0.868 +26° 16' 41.40" 1.000E-01 0.600 F 0.240 -0.560 21.4 V 0.70 0.83 d 691 1.79 Yes Yes
2001YT3 O C H 2001-12-24.31923 1.000E-05 08:32:53.260 1.500E-01 0.600 F 0.321 -0.420 +24° 00' 30.20" 1.000E-01 0.600 F 0.379 0.588 21.1 V 0.70 0.84 d 691 1.22 Yes Yes
2001YT3 O C H 2001-12-24.32424 1.000E-05 08:32:53.720 1.500E-01 0.600 F 0.321 -0.283 +24° 00' 26.80" 1.000E-01 0.600 F 0.379 0.149 21.7 V 0.70 1.44 d 691 0.54 Yes Yes
2001YT3 O C H 2001-12-24.32920 1.000E-05 08:32:54.190 1.500E-01 0.600 F 0.321 0.063 +24° 00' 23.20" 1.000E-01 0.600 F 0.379 -0.511 21.8 V 0.70 1.54 d 691 0.87 Yes Yes
Ivar O C 2001-12-24.42847 1.000E-05 08:36:16.990 1.500E-01 0.600 F 0.285 -0.234 +14° 30' 19.00" 1.000E-01 0.600 F 0.372 -0.316 17.9 V 0.70 1.11 d 691 0.65 Yes Yes
Ivar O C 2001-12-24.43344 1.000E-05 08:36:16.700 1.500E-01 0.600 F 0.285 -0.699 +14° 30' 20.40" 1.000E-01 0.600 F 0.372 -0.219 17.8 V 0.70 1.01 d 691 1.22 Yes Yes
Ivar O C 2001-12-24.43876 1.000E-05 08:36:16.420 1.500E-01 0.600 F 0.285 -0.755 +14° 30' 21.80" 1.000E-01 0.600 F 0.372 -0.214 17.8 V 0.70 1.01 d 691 1.31 Yes Yes
Nereus O C 2001-12-25.07399 1.000E-05 23:27:44.160 1.500E-01 0.600 F -0.176 -0.090 +08° 28' 03.70" 1.000E-01 0.600 F 0.296 -0.362 15.9 V 0.70 -0.46 d 691 0.63 Yes Yes
Nereus O C 2001-12-25.08850 1.000E-05 23:27:42.210 1.500E-01 0.600 F -0.176 -0.058 +08° 27' 58.20" 1.000E-01 0.600 F 0.296 -0.267 16.1 V 0.70 -0.26 d 691 0.46 Yes Yes
Nereus O C 2001-12-25.10373 1.000E-05 23:27:40.180 1.500E-01 0.600 F -0.176 -0.020 +08° 27' 52.30" 1.000E-01 0.600 F 0.296 -0.188 16.4 V 0.70 0.04 d 691 0.32 Yes Yes
2001YU3 O C 2001-12-25.12082 1.000E-05 04:13:11.320 1.500E-01 0.600 F -0.018 0.226 +21° 56' 00.60" 1.000E-01 0.600 F 0.283 -0.192 20.5 V 0.70 0.43 d 691 0.50 Yes Yes
2001YU3 O C 2001-12-25.12602 1.000E-05 04:13:10.680 1.500E-01 0.600 F -0.018 0.402 +21° 56' 04.10" 1.000E-01 0.600 F 0.283 -0.288 20.7 V 0.70 0.63 d 691 0.83 Yes Yes
2001YU3 O C 2001-12-25.13225 1.000E-05 04:13:09.890 1.500E-01 0.600 F -0.018 0.302 +21° 56' 08.60" 1.000E-01 0.600 F 0.283 -0.090 20.4 V 0.70 0.33 d 691 0.53 Yes Yes
2001YN2 O C H 2001-12-25.20544 1.000E-05 05:50:00.790 1.500E-01 0.600 F 0.063 -0.296 +26° 16' 51.80" 1.000E-01 0.600 F 0.240 0.868 20.7 V 0.70 -0.14 d 691 1.62 Yes Yes
2001YN2 O C H 2001-12-25.21055 1.000E-05 05:50:01.310 1.500E-01 0.600 F 0.063 -0.067 +26° 16' 51.50" 1.000E-01 0.600 F 0.240 0.072 21.0 V 0.70 0.16 d 691 0.18 Yes Yes
2001YN2 O C H 2001-12-25.21568 1.000E-05 05:50:01.980 1.500E-01 0.600 F 0.063 2.194 +26° 16' 51.00" 1.000E-01 0.600 F 0.240 -0.898 20.9 V 0.70 0.06 d 691 3.68 No Yes
2001YT3 O C 2001-12-25.34208 1.000E-05 08:34:32.340 1.500E-01 0.600 F 0.113 -0.357 +23° 49' 50.40" 1.000E-01 0.600 F 0.408 -0.786 21.1 V 0.70 0.88 d 691 1.45 Yes Yes
2001YT3 O C 2001-12-25.34730 1.000E-05 08:34:32.840 1.500E-01 0.600 F 0.113 0.267 +23° 49' 47.40" 1.000E-01 0.600 F 0.408 -0.600 21.1 V 0.70 0.88 d 691 1.11 Yes Yes
2001YT3 O C 2001-12-25.35230 1.000E-05 08:34:33.250 1.500E-01 0.600 F 0.113 -0.073 +23° 49' 43.70" 1.000E-01 0.600 F 0.408 -1.239 20.9 V 0.70 0.68 d 691 2.09 Yes Yes
2001YT3 O C 2002-01-04.30640 1.000E-05 08:48:46.680 1.500E-01 0.600 F 0.304 0.028 +21° 56' 09.10" 1.000E-01 0.600 F 0.234 -0.539 20.6 V 0.70 0.76 d 691 0.91 Yes Yes
2001YT3 O C 2002-01-04.33028 1.000E-05 08:48:48.290 1.500E-01 0.600 F 0.304 0.761 +21° 55' 51.80" 1.000E-01 0.600 F 0.234 -0.895 21.6 V 0.70 1.76 d 691 1.98 Yes Yes
2001YT3 O C 2002-01-04.35620 1.000E-05 08:48:49.940 1.500E-01 0.600 F 0.304 0.433 +21° 55' 33.50" 1.000E-01 0.600 F 0.234 -0.590 20.7 V 0.70 0.86 d 691 1.23 Yes Yes
2002AW O C 2002-01-05.27622 1.000E-05 08:33:50.510 1.500E-01 0.600 F 0.264 0.368 +17° 05' 33.60" 1.000E-01 0.600 F 0.337 0.182 20.3 V 0.70 0.22 d 691 0.69 Yes Yes
2002AW O C 2002-01-05.29838 1.000E-05 08:33:47.280 1.500E-01 0.600 F 0.264 -0.036 +17° 05' 44.70" 1.000E-01 0.600 F 0.337 -0.014 20.3 V 0.70 0.22 d 691 0.06 Yes Yes
2002AW O C 2002-01-05.32044 1.000E-05 08:33:44.100 1.500E-01 0.600 F 0.264 0.293 +17° 05' 55.80" 1.000E-01 0.600 F 0.337 -0.066 20.2 V 0.70 0.13 d 691 0.50 Yes Yes
2002AW O C 2002-01-06.34164 1.000E-05 08:31:20.900 1.500E-01 0.600 F 0.194 -0.195 +17° 14' 25.00" 1.000E-01 0.600 F 0.390 -0.344 20.0 V 0.70 -0.01 d 691 0.66 Yes Yes
2002AW O C 2002-01-06.34561 1.000E-05 08:31:20.290 1.500E-01 0.600 F 0.194 -0.316 +17° 14' 26.90" 1.000E-01 0.600 F 0.390 -0.480 20.0 V 0.70 -0.01 d 691 0.96 Yes Yes
2002AW O C 2002-01-06.34957 1.000E-05 08:31:19.720 1.500E-01 0.600 F 0.194 0.117 +17° 14' 28.90" 1.000E-01 0.600 F 0.390 -0.508 20.1 V 0.70 0.09 d 691 0.87 Yes Yes
2002AZ1 O C 2002-01-07.26614 1.000E-05 07:42:06.610 1.500E-01 0.600 F 0.418 0.396 +18° 45' 06.40" 1.000E-01 0.600 F 0.421 0.434 21.0 V 0.70 0.36 d 691 1.01 Yes Yes
2002AZ1 O C 2002-01-07.28797 1.000E-05 07:42:04.280 1.500E-01 0.600 F 0.418 0.398 +18° 45' 30.10" 1.000E-01 0.600 F 0.421 0.263 20.8 V 0.70 0.17 d 691 0.82 Yes Yes
2002AZ1 O C 2002-01-07.30960 1.000E-05 07:42:01.940 1.500E-01 0.600 F 0.418 0.110 +18° 45' 53.60" 1.000E-01 0.600 F 0.421 0.190 21.0 V 0.70 0.37 d 691 0.38 Yes Yes
2002AW O C 2002-01-07.32373 1.000E-05 08:28:58.280 1.500E-01 0.600 F 0.235 -0.298 +17° 22' 49.10" 1.000E-01 0.600 F 0.329 -0.275 19.9 V 0.70 -0.05 d 691 0.68 Yes Yes
2002AW O C 2002-01-07.32767 1.000E-05 08:28:57.660 1.500E-01 0.600 F 0.235 -0.339 +17° 22' 51.40" 1.000E-01 0.600 F 0.329 -0.064 20.1 V 0.70 0.15 d 691 0.58 Yes Yes
2002AW O C 2002-01-07.33155 1.000E-05 08:28:57.100 1.500E-01 0.600 F 0.235 0.348 +17° 22' 54.00" 1.000E-01 0.600 F 0.329 0.482 19.6 V 0.70 -0.35 d 691 0.99 Yes Yes
2002AZ1 O C 2002-01-08.33216 1.000E-05 07:40:16.700 1.500E-01 0.600 F 0.418 -0.324 +19° 04' 54.90" 1.000E-01 0.600 F 0.421 -0.514 20.4 V 0.70 -0.10 d 691 1.04 Yes Yes
2002AZ1 O C 2002-01-08.33717 1.000E-05 07:40:16.150 1.500E-01 0.600 F 0.418 0.067 +19° 05' 00.60" 1.000E-01 0.600 F 0.421 -0.582 20.3 V 0.70 -0.19 d 691 1.00 Yes Yes
2002AZ1 O C 2002-01-08.34160 1.000E-05 07:40:15.630 1.500E-01 0.600 F 0.418 -0.062 +19° 05' 06.10" 1.000E-01 0.600 F 0.421 -0.179 20.5 V 0.70 0.01 d 691 0.32 Yes Yes
1994CN2 O C 2002-01-08.49171 1.000E-05 11:48:30.040 1.500E-01 0.600 F 0.385 -0.320 +02° 55' 08.50" 1.000E-01 0.600 F 0.369 0.208 20.5 V 0.70 -0.06 d 691 0.64 Yes Yes
1994CN2 O C 2002-01-08.52296 1.000E-05 11:48:30.320 1.500E-01 0.600 F 0.385 -0.469 +02° 55' 08.10" 1.000E-01 0.600 F 0.369 0.006 20.7 V 0.70 0.14 d 691 0.78 Yes Yes
1994CN2 O C 2002-01-08.54726 1.000E-05 11:48:30.550 1.500E-01 0.600 F 0.385 -0.396 +02° 55' 08.00" 1.000E-01 0.600 F 0.369 0.059 20.5 V 0.70 -0.06 d 691 0.67 Yes Yes
2002AZ1 O C 2002-01-09.42168 1.000E-05 07:38:15.470 1.500E-01 0.600 F 0.348 0.551 +19° 26' 31.50" 1.000E-01 0.600 F 0.505 -1.010 21.8 V 0.70 1.46 d 691 1.96 Yes Yes
2002AZ1 O C 2002-01-09.42592 1.000E-05 07:38:14.960 1.500E-01 0.600 F 0.348 0.676 +19° 26' 37.20" 1.000E-01 0.600 F 0.505 -0.427 21.8 V 0.70 1.46 d 691 1.36 Yes Yes
2002AZ1 O C 2002-01-09.43154 1.000E-05 07:38:14.260 1.500E-01 0.600 F 0.348 0.492 +19° 26' 43.20" 1.000E-01 0.600 F 0.505 -1.205 21.7 V 0.70 1.36 d 691 2.22 Yes Yes
2002AZ1 O C H 2002-01-12.34721 1.000E-05 07:32:03.810 1.500E-01 0.600 F 0.120 -0.494 +20° 32' 15.00" 1.000E-01 0.600 F 0.434 0.387 19.8 V 0.70 -0.12 d 691 1.06 Yes Yes
2002AZ1 O C H 2002-01-12.35315 1.000E-05 07:32:02.980 1.500E-01 0.600 F 0.120 0.376 +20° 32' 23.60" 1.000E-01 0.600 F 0.434 0.328 20.7 V 0.70 0.78 d 691 0.84 Yes Yes
2002AZ1 O C H 2002-01-12.35933 1.000E-05 07:32:02.050 1.500E-01 0.600 F 0.120 0.345 +20° 32' 32.80" 1.000E-01 0.600 F 0.434 0.527 20.0 V 0.70 0.08 d 691 1.07 Yes Yes
2002AW O C H 2002-01-12.36603 1.000E-05 08:15:30.140 1.500E-01 0.600 F 0.179 0.126 +18° 08' 54.10" 1.000E-01 0.600 F 0.315 0.455 20.1 V 0.70 0.49 d 691 0.79 Yes Yes
2002AW O C H 2002-01-12.37021 1.000E-05 08:15:29.410 1.500E-01 0.600 F 0.179 0.486 +18° 08' 55.50" 1.000E-01 0.600 F 0.315 -0.499 21.0 V 0.70 1.39 d 691 1.17 Yes Yes
2002AW O C H 2002-01-12.37465 1.000E-05 08:15:28.490 1.500E-01 0.600 F 0.179 -1.194 +18° 08' 58.50" 1.000E-01 0.600 F 0.315 0.006 20.2 V 0.70 0.59 d 691 2.01 Yes Yes
2001YT3 O C 2002-01-12.38070 1.000E-05 08:57:33.870 1.500E-01 0.600 F 0.045 0.162 +20° 13' 36.60" 1.000E-01 0.600 F 0.552 -0.499 20.0 V 0.70 0.43 d 691 0.88 Yes Yes
2001YT3 O C 2002-01-12.38473 1.000E-05 08:57:34.040 1.500E-01 0.600 F 0.045 -0.009 +20° 13' 33.50" 1.000E-01 0.600 F 0.552 -0.418 20.1 V 0.70 0.54 d 691 0.70 Yes Yes
2001YT3 O C 2002-01-12.38906 1.000E-05 08:57:34.240 1.500E-01 0.600 F 0.045 0.051 +20° 13' 30.40" 1.000E-01 0.600 F 0.552 -0.093 20.0 V 0.70 0.44 d 691 0.18 Yes Yes
Mithra O C H 2002-01-13.14703 1.000E-05 03:31:48.440 1.500E-01 0.600 F -0.202 -0.310 +18° 10' 00.30" 1.000E-01 0.600 F 0.340 0.627 21.7 V 0.70 0.19 d 691 1.17 Yes Yes
Mithra O C H 2002-01-13.17498 1.000E-05 03:31:47.910 1.500E-01 0.600 F -0.202 0.500 +18° 09' 57.50" 1.000E-01 0.600 F 0.340 -1.144 21.6 V 0.70 0.09 d 691 2.08 Yes Yes
Mithra O C H 2002-01-13.20481 1.000E-05 03:31:47.300 1.500E-01 0.600 F -0.202 0.699 +18° 09' 59.70" 1.000E-01 0.600 F 0.340 2.175 21.4 V 0.70 -0.11 d 691 3.81 No Yes
Dionysus O C H 2002-01-13.23713 1.000E-05 05:24:37.830 1.500E-01 0.600 F 0.037 0.119 +26° 01' 19.30" 1.000E-01 0.600 F 0.307 0.541 21.4 V 0.70 -0.13 d 691 0.92 Yes Yes
Dionysus O C H 2002-01-13.24177 1.000E-05 05:24:37.610 1.500E-01 0.600 F 0.037 0.668 +26° 01' 18.40" 1.000E-01 0.600 F 0.307 -0.594 21.4 V 0.70 -0.13 d 691 1.49 Yes Yes
Dionysus O C H 2002-01-13.24624 1.000E-05 05:24:37.350 1.500E-01 0.600 F 0.037 0.549 +26° 01' 18.80" 1.000E-01 0.600 F 0.307 -0.419 21.4 V 0.70 -0.13 d 691 1.15 Yes Yes
2002AZ1 O C 2002-01-13.25220 1.000E-05 07:29:53.830 1.500E-01 0.600 F 0.171 -0.373 +20° 54' 59.60" 1.000E-01 0.600 F 0.231 -0.193 20.7 V 0.70 0.80 d 691 0.71 Yes Yes
2002AZ1 O C 2002-01-13.27441 1.000E-05 07:29:50.280 1.500E-01 0.600 F 0.171 -0.573 +20° 55' 34.50" 1.000E-01 0.600 F 0.231 -0.074 20.6 V 0.70 0.70 d 691 0.98 Yes Yes
2002AZ1 O C 2002-01-13.29673 1.000E-05 07:29:46.780 1.500E-01 0.600 F 0.171 0.350 +20° 56' 08.90" 1.000E-01 0.600 F 0.231 -0.515 21.7 V 0.70 1.80 d 691 1.05 Yes Yes
2002AT4 O C 2002-01-13.39798 1.000E-05 08:44:31.540 1.500E-01 0.600 F 0.214 0.294 +22° 42' 20.10" 1.000E-01 0.600 F 0.269 -0.065 18.9 V 0.70 0.48 d 691 0.51 Yes Yes
2002AT4 O C 2002-01-13.42054 1.000E-05 08:44:34.110 1.500E-01 0.600 F 0.214 0.350 +22° 42' 06.90" 1.000E-01 0.600 F 0.269 -0.027 18.7 V 0.70 0.28 d 691 0.59 Yes Yes
2002AT4 O C 2002-01-13.44301 1.000E-05 08:44:36.760 1.500E-01 0.600 F 0.214 1.341 +22° 41' 52.80" 1.000E-01 0.600 F 0.269 -0.635 19.7 V 0.70 1.29 d 691 2.50 Yes Yes
2002AC9 O C 2002-01-13.46088 1.000E-05 10:43:26.290 1.500E-01 0.600 F 0.391 -0.001 +19° 11' 20.60" 1.000E-01 0.600 F 0.388 -0.381 19.9 V 0.70 0.38 d 691 0.66 Yes Yes
2002AC9 O C 2002-01-13.46578 1.000E-05 10:43:24.730 1.500E-01 0.600 F 0.391 -0.067 +19° 11' 25.60" 1.000E-01 0.600 F 0.388 -0.163 19.9 V 0.70 0.38 d 691 0.31 Yes Yes
2002AC9 O C 2002-01-13.47026 1.000E-05 10:43:23.280 1.500E-01 0.600 F 0.391 -0.468 +19° 11' 30.10" 1.000E-01 0.600 F 0.388 -0.025 19.8 V 0.70 0.28 d 691 0.82 Yes Yes
2002AC29 O C 2002-01-15.09134 1.000E-05 03:41:58.440 1.500E-01 0.600 F -0.077 -0.522 +19° 14' 31.40" 1.000E-01 0.600 F 0.343 0.229 21.6 V 0.70 0.91 d 691 0.95 Yes Yes
2002AC29 O C 2002-01-15.11367 1.000E-05 03:41:56.950 1.500E-01 0.600 F -0.077 0.145 +19° 14' 47.30" 1.000E-01 0.600 F 0.343 0.009 21.1 V 0.70 0.41 d 691 0.24 Yes Yes
2002AC29 O C 2002-01-15.13626 1.000E-05 03:41:55.350 1.500E-01 0.600 F -0.077 -0.488 +19° 15' 03.70" 1.000E-01 0.600 F 0.343 0.147 20.5 V 0.70 -0.19 d 691 0.85 Yes Yes
2002AP3 O C H 2002-01-19.18980 1.000E-05 05:54:14.330 1.500E-01 0.600 F 0.010 0.264 +31° 44' 33.10" 1.000E-01 0.600 F 0.175 0.701 20.6 V 0.70 0.56 d 691 1.28 Yes Yes
2002AP3 O C H 2002-01-19.19501 1.000E-05 05:54:13.390 1.500E-01 0.600 F 0.010 0.446 +31° 44' 36.70" 1.000E-01 0.600 F 0.175 0.072 20.1 V 0.70 0.06 d 691 0.78 Yes Yes
2002AP3 O C H 2002-01-19.19983 1.000E-05 05:54:12.450 1.500E-01 0.600 F 0.010 -0.279 +31° 44' 41.30" 1.000E-01 0.600 F 0.175 0.768 20.2 V 0.70 0.16 d 691 1.39 Yes Yes
2002AW O C H 2002-01-19.20715 1.000E-05 07:54:45.460 1.500E-01 0.600 F 0.314 0.028 +19° 14' 25.90" 1.000E-01 0.600 F 0.301 0.636 20.4 V 0.70 1.19 d 691 1.06 Yes Yes
2002AW O C H 2002-01-19.21120 1.000E-05 07:54:44.560 1.500E-01 0.600 F 0.314 -1.381 +19° 14' 28.10" 1.000E-01 0.600 F 0.301 0.431 20.0 V 0.70 0.79 d 691 2.44 Yes Yes
2002AW O C H 2002-01-19.21521 1.000E-05 07:54:43.810 1.500E-01 0.600 F 0.314 -0.769 +19° 14' 30.30" 1.000E-01 0.600 F 0.301 0.253 19.8 V 0.70 0.59 d 691 1.36 Yes Yes
2002AM31 O C 2002-01-19.23634 1.000E-05 07:36:48.150 1.500E-01 0.600 F 0.380 -0.270 +17° 06' 52.30" 1.000E-01 0.600 F 0.317 -0.522 20.9 V 0.70 0.85 d 691 0.98 Yes Yes
2002AM31 O C 2002-01-19.24040 1.000E-05 07:36:47.760 1.500E-01 0.600 F 0.380 0.037 +17° 06' 54.30" 1.000E-01 0.600 F 0.317 -0.338 20.9 V 0.70 0.84 d 691 0.57 Yes Yes
2002AM31 O C 2002-01-19.24427 1.000E-05 07:36:47.370 1.500E-01 0.600 F 0.380 0.070 +17° 06' 56.20" 1.000E-01 0.600 F 0.317 -0.169 20.9 V 0.70 0.84 d 691 0.30 Yes Yes
2000WO107 O C H 2002-01-19.25488 1.000E-05 04:55:34.580 1.500E-01 0.600 F 0.046 0.283 +31° 21' 18.70" 1.000E-01 0.600 F 0.291 0.781 21.9 V 0.70 1.03 d 691 1.39 Yes Yes
2000WO107 O C H 2002-01-19.25923 1.000E-05 04:55:33.940 1.500E-01 0.600 F 0.046 0.265 +31° 21' 15.80" 1.000E-01 0.600 F 0.291 -0.311 21.0 V 0.70 0.13 d 691 0.68 Yes Yes
2000WO107 O C H 2002-01-19.26352 1.000E-05 04:55:33.340 1.500E-01 0.600 F 0.046 0.642 +31° 21' 15.40" 1.000E-01 0.600 F 0.291 1.076 21.0 V 0.70 0.13 d 691 2.09 Yes Yes
2001YT3 O C 2002-01-19.40091 1.000E-05 09:03:17.430 1.500E-01 0.600 F 0.477 -0.149 +18° 40' 14.60" 1.000E-01 0.600 F 0.328 -0.233 19.5 V 0.70 0.16 d 691 0.46 Yes Yes
2001YT3 O C 2002-01-19.40517 1.000E-05 09:03:17.560 1.500E-01 0.600 F 0.477 -0.209 +18° 40' 11.10" 1.000E-01 0.600 F 0.328 -0.241 19.5 V 0.70 0.16 d 691 0.54 Yes Yes
2001YT3 O C 2002-01-19.41139 1.000E-05 09:03:17.760 1.500E-01 0.600 F 0.477 -0.160 +18° 40' 06.00" 1.000E-01 0.600 F 0.328 -0.233 19.5 V 0.70 0.16 d 691 0.48 Yes Yes
Wilson-Harrington O C 2002-01-19.41771 1.000E-05 10:01:54.960 1.500E-01 0.600 F 0.404 -0.055 +08° 52' 27.10" 1.000E-01 0.600 F 0.026 -0.220 20.9 V 0.70 0.21 d 691 0.38 Yes Yes
Wilson-Harrington O C 2002-01-19.42172 1.000E-05 10:01:54.730 1.500E-01 0.600 F 0.404 -0.085 +08° 52' 28.20" 1.000E-01 0.600 F 0.026 -0.107 21.0 V 0.70 0.31 d 691 0.22 Yes Yes
Wilson-Harrington O C 2002-01-19.42583 1.000E-05 10:01:54.500 1.500E-01 0.600 F 0.404 -0.031 +08° 52' 29.00" 1.000E-01 0.600 F 0.026 -0.318 21.0 V 0.70 0.31 d 691 0.53 Yes Yes
1993DQ1 O C H 2002-01-19.43448 1.000E-05 11:44:09.140 1.500E-01 0.600 F 0.613 -0.687 -04° 29' 29.40" 1.000E-01 0.600 F 0.470 0.336 20.6 V 0.70 -0.13 d 691 1.28 Yes Yes
1993DQ1 O C H 2002-01-19.43821 1.000E-05 11:44:09.080 1.500E-01 0.600 F 0.613 -1.275 -04° 29' 30.20" 1.000E-01 0.600 F 0.470 0.669 21.2 V 0.70 0.47 d 691 2.41 Yes Yes
1993DQ1 O C H 2002-01-19.44242 1.000E-05 11:44:09.080 1.500E-01 0.600 F 0.613 -0.927 -04° 29' 31.90" 1.000E-01 0.600 F 0.470 0.247 21.8 V 0.70 1.07 d 691 1.60 Yes Yes
2001ME1 O C 2002-01-19.53134 1.000E-05 13:14:53.270 1.500E-01 0.600 F 0.324 -0.058 -00° 31' 06.90" 1.000E-01 0.600 F 0.305 -0.597 21.2 V 0.70 0.03 d 691 1.00 Yes Yes
2001ME1 O C 2002-01-19.53813 1.000E-05 13:14:53.180 1.500E-01 0.600 F 0.324 -0.421 -00° 31' 05.00" 1.000E-01 0.600 F 0.305 -0.274 21.4 V 0.70 0.23 d 691 0.84 Yes Yes
2001ME1 O C 2002-01-19.54520 1.000E-05 13:14:53.100 1.500E-01 0.600 F 0.324 -0.593 -00° 31' 02.70" 1.000E-01 0.600 F 0.305 0.383 21.6 V 0.70 0.43 d 691 1.18 Yes Yes
2002AP3 O C H 2002-01-20.11983 1.000E-05 05:51:31.240 1.500E-01 0.600 F 0.087 -0.509 +31° 56' 51.10" 1.000E-01 0.600 F 0.290 0.665 21.1 V 0.70 1.06 d 691 1.42 Yes Yes
2002AP3 O C H 2002-01-20.12449 1.000E-05 05:51:30.450 1.500E-01 0.600 F 0.087 0.241 +31° 56' 54.60" 1.000E-01 0.600 F 0.290 0.343 20.5 V 0.70 0.46 d 691 0.72 Yes Yes
2002AP3 O C H 2002-01-20.12893 1.000E-05 05:51:29.590 1.500E-01 0.600 F 0.087 -0.403 +31° 56' 57.90" 1.000E-01 0.600 F 0.290 0.006 20.5 V 0.70 0.46 d 691 0.69 Yes Yes
2002AZ1 O C 2002-01-20.33545 1.000E-05 07:07:15.880 1.500E-01 0.600 F 0.265 0.352 +24° 41' 33.90" 1.000E-01 0.600 F 0.331 -0.036 19.9 V 0.70 0.13 d 691 0.61 Yes Yes
2002AZ1 O C 2002-01-20.33972 1.000E-05 07:07:14.760 1.500E-01 0.600 F 0.265 -0.084 +24° 41' 44.00" 1.000E-01 0.600 F 0.331 0.220 19.8 V 0.70 0.03 d 691 0.40 Yes Yes
2002AZ1 O C 2002-01-20.34386 1.000E-05 07:07:13.710 1.500E-01 0.600 F 0.265 -0.021 +24° 41' 53.40" 1.000E-01 0.600 F 0.331 0.080 19.9 V 0.70 0.13 d 691 0.14 Yes Yes
2002AM31 O C 2002-01-20.35096 1.000E-05 07:34:59.220 1.500E-01 0.600 F 0.361 -0.080 +17° 15' 02.30" 1.000E-01 0.600 F 0.265 -0.395 20.8 V 0.70 0.69 d 691 0.67 Yes Yes
2002AM31 O C 2002-01-20.35498 1.000E-05 07:34:58.820 1.500E-01 0.600 F 0.361 -0.077 +17° 15' 04.10" 1.000E-01 0.600 F 0.265 -0.330 20.8 V 0.70 0.69 d 691 0.56 Yes Yes
2002AM31 O C 2002-01-20.35892 1.000E-05 07:34:58.430 1.500E-01 0.600 F 0.361 -0.046 +17° 15' 05.80" 1.000E-01 0.600 F 0.265 -0.329 20.9 V 0.70 0.79 d 691 0.55 Yes Yes
2002BA1 O C 2002-01-20.45061 1.000E-05 09:23:12.250 1.500E-01 0.600 F 0.297 -0.043 +16° 25' 36.50" 1.000E-01 0.600 F 0.387 -0.083 21.2 V 0.70 1.10 d 691 0.16 Yes Yes

[1-200] [201-400] [401-600] [601-800] [801-1000] [1001-1200] [1201-1400] [1401-1600] [1601-1800] [1801-2000] [2001-2200] [2201-2400] [2401-2600] [2601-2800] [2801-3000] [3001-3200] [3201-3400] [3401-3600] [3601-3800] [3801-4000] [4001-4200] [4201-4400] [4401-4600] [4601-4800] [4801-5000] [5001-5200] [5201-5400] [5401-5600] [5601-5800] [5801-6000] [6001-6200] [6201-6400] [6401-6600] [6601-6800] [6801-7000] [7001-7200] [7201-7400] [7401-7600] [7601-7800] [7801-8000] [8001-8200] [8201-8400] [8401-8600] [8601-8800] [8801-9000] [9001-9200] [9201-9400] [9401-9600] [9601-9800] [9801-10000] [10001-10200] [10201-10400] [10401-10600] [10601-10800] [10801-11000] [11001-11200] [11201-11400] [11401-11600] [11601-11800] [11801-12000] [12001-12200] [12201-12400] [12401-12600] [12601-12800] [12801-13000] [13001-13200] [13201-13400] [13401-13600] [13601-13800] [13801-14000] [14001-14200] [14201-14400] [14401-14600] [14601-14800] [14801-15000] [15001-15200] [15201-15400] [15401-15600] [15601-15800] [15801-16000] [16001-16200] [16201-16400] [16401-16600] [16601-16800] [16801-17000] [17001-17200] [17201-17400] [17401-17600] [17601-17800] [17801-18000] [18001-18200] [18201-18400] [18401-18600] [18601-18800] [18801-19000] [19001-19200] [19201-19400] [19401-19600] [19601-19800] [19801-20000] [20001-20200] [20201-20400] [20401-20600] [20601-20800] [20801-21000] [21001-21200] [21201-21400] [21401-21600] [21601-21800] [21801-22000] [22001-22200] [22201-22400] [22401-22600] [22601-22800] [22801-23000] [23001-23200] [23201-23400] [23401-23600] [23601-23800] [23801-24000] [24001-24200] [24201-24400] [24401-24600] [24601-24800] [24801-25000] [25001-25200] [25201-25400] [25401-25600] [25601-25800] [25801-26000] [26001-26200] [26201-26400] [26401-26600] [26601-26800] [26801-27000] [27001-27200] [27201-27400] [27401-27600] [27601-27800] [27801-28000] [28001-28200] [28201-28400] [28401-28600] [28601-28800] [28801-29000] [29001-29200] [29201-29400] [29401-29600] [29601-29800] [29801-30000] [30001-30200] [30201-30400] [30401-30600] [30601-30800] [30801-31000] [31001-31200] [31201-31400] [31401-31600] [31601-31800] [31801-32000] [32001-32200] [32201-32400] [32401-32600] [32601-32800] [32801-33000] [33001-33200] [33201-33400] [33401-33600] [33601-33800] [33801-34000] [34001-34200] [34201-34400] [34401-34600] [34601-34800] [34801-35000] [35001-35200] [35201-35400] [35401-35600] [35601-35800] [35801-36000] [36001-36200] [36201-36400] [36401-36600] [36601-36800] [36801-37000] [37001-37200] [37201-37400] [37401-37600] [37601-37800] [37801-38000] [38001-38200] [38201-38400] [38401-38600] [38601-38800] [38801-39000] [39001-39200] [39201-39400] [39401-39600] [39601-39800] [39801-40000] [40001-40200] [40201-40400] [40401-40600] [40601-40800] [40801-41000] [41001-41200] [41201-41400] [41401-41600] [41601-41800] [41801-42000] [42001-42200] [42201-42400] [42401-42600] [42601-42800] [42801-43000] [43001-43200] [43201-43400] [43401-43600] [43601-43800] [43801-44000] [44001-44200] [44201-44400] [44401-44600] [44601-44800] [44801-45000] [45001-45200] [45201-45400] [45401-45600] [45601-45800] [45801-46000] [46001-46200] [46201-46400] [46401-46600] [46601-46800] [46801-47000] [47001-47200] [47201-47400] [47401-47600] [47601-47800] [47801-48000] [48001-48200] [48201-48400] [48401-48600] [48601-48800] [48801-49000] [49001-49200] [49201-49400] [49401-49600] [49601-49800] [49801-50000] [50001-50200] [50201-50388]